createdAt,value
2022-12-20T00:00:51.558Z,8.95
2022-12-20T00:03:18.070Z,8.97
2022-12-20T00:05:44.835Z,8.98
2022-12-20T00:08:11.406Z,8.99
2022-12-20T00:10:40.105Z,9.03
2022-12-20T00:13:06.907Z,9.12
2022-12-20T00:15:34.085Z,9.19
2022-12-20T00:18:01.797Z,9.21
2022-12-20T00:20:29.184Z,9.19
2022-12-20T00:22:56.145Z,9.23
2022-12-20T00:25:22.605Z,9.20
2022-12-20T00:27:49.875Z,9.19
2022-12-20T00:30:17.359Z,9.23
2022-12-20T00:32:44.980Z,9.25
2022-12-20T00:35:12.119Z,9.24
2022-12-20T00:37:39.020Z,9.32
2022-12-20T00:40:06.371Z,9.40
2022-12-20T00:42:33.241Z,9.37
2022-12-20T00:44:59.719Z,9.41
2022-12-20T00:47:26.128Z,9.52
2022-12-20T00:49:52.620Z,9.55
2022-12-20T00:52:18.996Z,9.55
2022-12-20T00:54:45.348Z,9.54
2022-12-20T00:57:11.696Z,9.59
2022-12-20T00:59:38.097Z,9.57
2022-12-20T01:02:04.630Z,9.55
2022-12-20T01:04:31.087Z,9.54
2022-12-20T01:06:57.461Z,9.54
2022-12-20T01:09:23.861Z,9.54
2022-12-20T01:11:50.323Z,9.52
2022-12-20T01:14:16.947Z,9.61
2022-12-20T01:16:46.768Z,9.62
2022-12-20T01:19:16.370Z,9.59
2022-12-20T01:21:46.182Z,9.58
2022-12-20T01:24:14.387Z,9.52
2022-12-20T01:26:41.392Z,9.48
2022-12-20T01:29:08.095Z,9.50
2022-12-20T01:31:34.808Z,9.54
2022-12-20T01:34:01.835Z,9.49
2022-12-20T01:36:33.980Z,9.41
2022-12-20T01:39:04.363Z,9.34
2022-12-20T01:41:31.965Z,9.30
2022-12-20T01:44:01.662Z,9.30
2022-12-20T01:46:31.403Z,9.23
2022-12-20T01:49:06.117Z,9.18
2022-12-20T01:51:35.869Z,9.18
2022-12-20T01:54:07.981Z,9.10
2022-12-20T01:56:34.892Z,9.05
2022-12-20T01:59:01.953Z,9.00
2022-12-20T02:01:28.505Z,8.98
2022-12-20T02:03:55.553Z,8.96
2022-12-20T02:06:25.957Z,8.94
2022-12-20T02:08:55.335Z,8.90
2022-12-20T02:11:49.173Z,8.88
2022-12-20T02:14:28.449Z,8.84
2022-12-20T02:17:10.088Z,8.83
2022-12-20T02:20:04.982Z,8.80
2022-12-20T02:22:40.368Z,8.80
2022-12-20T02:25:36.094Z,8.77
2022-12-20T02:28:36.764Z,8.73
2022-12-20T02:31:08.060Z,8.75
2022-12-20T02:33:34.593Z,8.74
2022-12-20T02:36:03.478Z,8.71
2022-12-20T02:38:38.062Z,8.69
2022-12-20T02:41:13.875Z,8.71
2022-12-20T02:44:03.705Z,8.70
2022-12-20T02:46:32.707Z,8.68
2022-12-20T02:49:04.432Z,8.66
2022-12-20T02:51:33.400Z,8.64
2022-12-20T02:54:00.648Z,8.66
2022-12-20T02:56:35.458Z,8.62
2022-12-20T02:59:23.378Z,8.59
2022-12-20T03:01:52.743Z,8.58
2022-12-20T03:04:23.531Z,8.57
2022-12-20T03:07:16.727Z,8.54
2022-12-20T03:09:44.904Z,8.59
2022-12-20T03:12:12.563Z,8.58
2022-12-20T03:14:39.877Z,8.57
2022-12-20T03:17:07.703Z,8.53
2022-12-20T03:19:35.323Z,8.50
2022-12-20T03:22:01.775Z,8.51
2022-12-20T03:24:28.155Z,8.51
2022-12-20T03:26:54.618Z,8.51
2022-12-20T03:29:21.040Z,8.49
2022-12-20T03:31:47.429Z,8.51
2022-12-20T03:34:13.811Z,8.52
2022-12-20T03:36:40.210Z,8.51
2022-12-20T03:39:06.640Z,8.58
2022-12-20T03:41:33.103Z,8.67
2022-12-20T03:43:59.641Z,8.71
2022-12-20T03:46:26.172Z,8.71
2022-12-20T03:48:52.577Z,8.71
2022-12-20T03:51:19.384Z,8.66
2022-12-20T03:53:45.745Z,8.67
2022-12-20T03:56:12.136Z,8.70
2022-12-20T03:58:39.304Z,8.68
2022-12-20T04:01:23.728Z,8.71
2022-12-20T04:03:51.136Z,8.74
2022-12-20T04:06:18.157Z,8.75
2022-12-20T04:08:44.948Z,8.76
2022-12-20T04:11:18.061Z,8.81
2022-12-20T04:13:50.717Z,8.88
2022-12-20T04:16:20.261Z,8.88
2022-12-20T04:18:46.792Z,8.89
2022-12-20T04:21:13.837Z,8.92
2022-12-20T04:23:42.134Z,8.98
2022-12-20T04:26:09.596Z,9.04
2022-12-20T04:28:36.673Z,9.04
2022-12-20T04:31:03.942Z,9.09
2022-12-20T04:33:30.859Z,9.13
2022-12-20T04:35:57.296Z,9.16
2022-12-20T04:38:24.106Z,9.19
2022-12-20T04:40:52.126Z,9.26
2022-12-20T04:43:19.625Z,9.32
2022-12-20T04:45:48.745Z,9.35
2022-12-20T04:48:54.722Z,9.38
2022-12-20T04:51:02.479Z,9.44
2022-12-20T04:53:48.004Z,9.46
2022-12-20T04:56:28.864Z,9.57
2022-12-20T04:58:57.520Z,9.59
2022-12-20T05:01:24.411Z,9.57
2022-12-20T05:03:51.300Z,9.57
2022-12-20T05:06:18.201Z,9.57
2022-12-20T05:08:44.639Z,9.52
2022-12-20T05:11:11.077Z,9.49
2022-12-20T05:13:37.535Z,9.47
2022-12-20T05:16:04.502Z,9.46
2022-12-20T05:18:31.208Z,9.43
2022-12-20T05:21:17.912Z,9.43
2022-12-20T05:24:02.695Z,9.46
2022-12-20T05:26:31.899Z,9.47
2022-12-20T05:28:58.440Z,9.48
2022-12-20T05:31:24.887Z,9.45
2022-12-20T05:33:51.546Z,9.46
2022-12-20T05:36:18.256Z,9.45
2022-12-20T05:38:44.680Z,9.45
2022-12-20T05:41:11.174Z,9.44
2022-12-20T05:43:37.753Z,9.44
2022-12-20T05:46:04.147Z,9.44
2022-12-20T05:48:30.695Z,9.48
2022-12-20T05:50:57.327Z,9.47
2022-12-20T05:53:23.854Z,9.49
2022-12-20T05:55:52.219Z,9.52
2022-12-20T05:58:19.467Z,9.55
2022-12-20T06:00:47.367Z,9.54
2022-12-20T06:03:15.336Z,9.52
2022-12-20T06:05:43.552Z,9.55
2022-12-20T06:08:10.899Z,9.53
2022-12-20T06:10:37.388Z,9.53
2022-12-20T06:13:04.325Z,9.52
2022-12-20T06:15:31.396Z,9.52
2022-12-20T06:17:58.010Z,9.50
2022-12-20T06:20:24.755Z,9.50
2022-12-20T06:22:52.538Z,9.54
2022-12-20T06:25:19.015Z,9.54
2022-12-20T06:27:45.440Z,9.56
2022-12-20T06:30:12.899Z,9.58
2022-12-20T06:32:39.505Z,9.60
2022-12-20T06:35:06.446Z,9.62
2022-12-20T06:37:33.206Z,9.63
2022-12-20T06:40:00.229Z,9.64
2022-12-20T06:42:26.882Z,9.68
2022-12-20T06:44:53.304Z,9.70
2022-12-20T06:47:19.775Z,9.69
2022-12-20T06:49:46.195Z,9.67
2022-12-20T06:52:12.754Z,9.67
2022-12-20T06:54:39.138Z,9.70
2022-12-20T06:57:06.763Z,9.69
2022-12-20T06:59:33.209Z,9.65
2022-12-20T07:01:59.814Z,9.66
2022-12-20T07:04:26.552Z,9.69
2022-12-20T07:06:53.002Z,9.72
2022-12-20T07:09:19.692Z,9.70
2022-12-20T07:11:46.117Z,9.74
2022-12-20T07:14:12.538Z,9.80
2022-12-20T07:16:41.515Z,9.81
2022-12-20T07:19:11.501Z,9.87
2022-12-20T07:21:38.260Z,9.86
2022-12-20T07:24:05.755Z,9.88
2022-12-20T07:26:32.173Z,9.93
2022-12-20T07:28:58.799Z,9.96
2022-12-20T07:31:25.298Z,9.97
2022-12-20T07:33:52.597Z,10.01
2022-12-20T07:36:19.129Z,10.07
2022-12-20T07:38:45.551Z,10.07
2022-12-20T07:41:14.898Z,10.12
2022-12-20T07:43:41.912Z,10.16
2022-12-20T07:46:11.757Z,10.16
2022-12-20T07:48:38.534Z,10.18
2022-12-20T07:51:09.747Z,10.12
2022-12-20T07:53:41.102Z,10.10
2022-12-20T07:56:09.849Z,10.06
2022-12-20T07:58:39.749Z,10.04
2022-12-20T08:01:07.479Z,10.03
2022-12-20T08:03:42.640Z,10.08
2022-12-20T08:06:09.603Z,10.05
2022-12-20T08:08:40.552Z,10.03
2022-12-20T08:11:09.832Z,10.01
2022-12-20T08:13:40.948Z,9.98
2022-12-20T08:16:12.342Z,9.98
2022-12-20T08:18:38.746Z,9.99
2022-12-20T08:21:05.391Z,10.01
2022-12-20T08:23:32.442Z,9.98
2022-12-20T08:26:01.597Z,9.98
2022-12-20T08:28:28.191Z,10.01
2022-12-20T08:31:07.937Z,9.99
2022-12-20T08:33:35.705Z,10.04
2022-12-20T08:36:04.512Z,10.03
2022-12-20T08:38:32.026Z,10.01
2022-12-20T08:41:05.273Z,9.99
2022-12-20T08:43:34.946Z,10.02
2022-12-20T08:46:01.516Z,10.01
2022-12-20T08:48:28.306Z,10.01
2022-12-20T08:51:01.012Z,9.98
2022-12-20T08:53:29.369Z,9.96
2022-12-20T08:56:07.821Z,9.96
2022-12-20T08:58:35.506Z,9.95
2022-12-20T09:01:06.863Z,9.97
2022-12-20T09:03:34.945Z,9.95
2022-12-20T09:06:04.325Z,9.89
2022-12-20T09:08:30.991Z,9.84
2022-12-20T09:11:33.005Z,9.83
2022-12-20T09:14:00.139Z,9.79
2022-12-20T09:16:29.535Z,9.74
2022-12-20T09:19:04.574Z,9.73
2022-12-20T09:21:32.848Z,9.72
2022-12-20T09:23:59.290Z,9.72
2022-12-20T09:26:26.223Z,9.69
2022-12-20T09:28:52.759Z,9.68
2022-12-20T09:31:22.932Z,9.68
2022-12-20T09:33:49.744Z,9.67
2022-12-20T09:36:18.747Z,9.66
2022-12-20T09:38:46.869Z,9.65
2022-12-20T09:41:31.793Z,9.66
2022-12-20T09:44:00.140Z,9.64
2022-12-20T09:46:27.699Z,9.63
2022-12-20T09:48:54.658Z,9.63
2022-12-20T09:51:39.776Z,9.62
2022-12-20T09:54:15.534Z,9.60
2022-12-20T09:57:03.020Z,9.59
2022-12-20T09:59:32.926Z,9.58
2022-12-20T10:02:26.529Z,9.57
2022-12-20T10:04:48.721Z,9.57
2022-12-20T10:07:24.215Z,9.55
2022-12-20T10:10:10.933Z,9.55
2022-12-20T10:12:56.401Z,9.53
2022-12-20T10:15:34.142Z,9.55
2022-12-20T10:18:24.929Z,9.55
2022-12-20T10:21:15.484Z,9.56
2022-12-20T10:24:02.211Z,9.58
2022-12-20T10:26:29.863Z,9.60
2022-12-20T10:28:56.256Z,9.62
2022-12-20T10:31:23.074Z,9.62
2022-12-20T10:33:49.561Z,9.63
2022-12-20T10:36:26.245Z,9.64
2022-12-20T10:39:01.126Z,9.65
2022-12-20T10:41:30.741Z,9.67
2022-12-20T10:44:04.479Z,9.70
2022-12-20T10:46:47.654Z,9.69
2022-12-20T10:49:36.998Z,9.68
2022-12-20T10:52:13.239Z,9.68
2022-12-20T10:54:42.128Z,9.66
2022-12-20T10:57:18.336Z,9.67
2022-12-20T10:59:56.861Z,9.68
2022-12-20T11:02:39.335Z,9.70
2022-12-20T11:05:10.492Z,9.71
2022-12-20T11:08:24.592Z,9.72
2022-12-20T11:10:37.935Z,9.73
2022-12-20T11:13:04.511Z,9.73
2022-12-20T11:15:34.650Z,9.73
2022-12-20T11:18:09.272Z,9.73
2022-12-20T11:20:47.392Z,9.74
2022-12-20T11:23:35.521Z,9.75
2022-12-20T11:26:28.642Z,9.74
2022-12-20T11:29:10.780Z,9.75
2022-12-20T11:31:51.651Z,9.78
2022-12-20T11:34:28.885Z,9.78
2022-12-20T11:37:18.908Z,9.78
2022-12-20T11:40:00.119Z,9.79
2022-12-20T11:42:54.901Z,9.79
2022-12-20T11:45:45.425Z,9.80
2022-12-20T11:48:17.958Z,9.81
2022-12-20T11:51:15.549Z,9.80
2022-12-20T11:53:53.669Z,9.83
2022-12-20T11:56:37.338Z,9.81
2022-12-20T11:59:37.711Z,9.82
2022-12-20T12:02:13.574Z,9.83
2022-12-20T12:04:46.300Z,9.83
2022-12-20T12:07:18.158Z,9.83
2022-12-20T12:10:05.809Z,9.82
2022-12-20T12:12:37.591Z,9.81
2022-12-20T12:15:17.157Z,9.84
2022-12-20T12:18:14.697Z,9.86
2022-12-20T12:20:48.272Z,9.88
2022-12-20T12:23:29.808Z,9.89
2022-12-20T12:25:59.134Z,9.91
2022-12-20T12:28:25.669Z,9.92
2022-12-20T12:31:04.553Z,9.94
2022-12-20T12:33:40.479Z,9.96
2022-12-20T12:36:39.321Z,9.96
2022-12-20T12:39:38.164Z,9.96
2022-12-20T12:42:14.505Z,9.95
2022-12-20T12:44:45.913Z,9.96
2022-12-20T12:47:22.036Z,9.95
2022-12-20T12:49:51.418Z,9.97
2022-12-20T12:52:46.178Z,9.96
2022-12-20T12:56:02.250Z,9.97
2022-12-20T12:58:46.532Z,9.96
2022-12-20T13:01:50.240Z,9.96
2022-12-20T13:04:19.821Z,9.97
2022-12-20T13:06:49.233Z,9.95
2022-12-20T13:09:22.434Z,9.96
2022-12-20T13:11:55.554Z,9.97
2022-12-20T13:14:27.484Z,9.97
2022-12-20T13:17:18.297Z,9.98
2022-12-20T13:19:55.382Z,9.97
2022-12-20T13:22:25.950Z,9.98
2022-12-20T13:24:57.913Z,9.98
2022-12-20T13:27:39.065Z,9.97
2022-12-20T13:30:05.612Z,9.97
2022-12-20T13:32:47.409Z,9.97
2022-12-20T13:35:26.194Z,9.97
2022-12-20T13:37:57.310Z,9.97
2022-12-20T13:40:43.560Z,9.96
2022-12-20T13:43:22.084Z,9.95
2022-12-20T13:45:53.407Z,9.95
2022-12-20T13:48:26.303Z,9.97
2022-12-20T13:50:55.394Z,9.97
2022-12-20T13:53:27.132Z,9.95
2022-12-20T13:55:54.830Z,9.97
2022-12-20T13:58:27.959Z,9.97
2022-12-20T14:01:03.793Z,9.97
2022-12-20T14:03:31.183Z,9.97
2022-12-20T14:06:11.078Z,9.96
2022-12-20T14:08:43.563Z,9.96
2022-12-20T14:11:17.127Z,9.96
2022-12-20T14:13:51.153Z,9.96
2022-12-20T14:16:19.444Z,9.97
2022-12-20T14:18:50.449Z,9.95
2022-12-20T14:21:18.669Z,9.97
2022-12-20T14:23:48.494Z,9.96
2022-12-20T14:26:48.112Z,9.98
2022-12-20T14:29:20.547Z,9.97
2022-12-20T14:31:48.531Z,9.98
2022-12-20T14:34:25.973Z,9.97
2022-12-20T14:37:34.641Z,9.96
2022-12-20T14:40:18.372Z,9.95
2022-12-20T14:42:48.160Z,9.93
2022-12-20T14:45:14.497Z,9.94
2022-12-20T14:48:03.383Z,9.94
2022-12-20T14:50:34.022Z,9.93
2022-12-20T14:53:03.065Z,9.93
2022-12-20T14:55:36.559Z,9.90
2022-12-20T14:58:23.473Z,9.89
2022-12-20T15:01:14.787Z,9.88
2022-12-20T15:03:59.338Z,9.88
2022-12-20T15:06:48.082Z,9.86
2022-12-20T15:09:17.571Z,9.86
2022-12-20T15:11:45.872Z,9.84
2022-12-20T15:14:36.778Z,9.83
2022-12-20T15:17:09.052Z,9.82
2022-12-20T15:19:38.984Z,9.83
2022-12-20T15:22:18.107Z,9.81
2022-12-20T15:24:44.518Z,9.80
2022-12-20T15:27:14.894Z,9.81
2022-12-20T15:29:42.100Z,9.80
2022-12-20T15:32:21.761Z,9.79
2022-12-20T15:34:48.343Z,9.79
2022-12-20T15:37:18.661Z,9.78
2022-12-20T15:39:45.684Z,9.77
2022-12-20T15:42:17.632Z,9.76
2022-12-20T15:44:44.536Z,9.75
2022-12-20T15:47:13.770Z,9.75
2022-12-20T15:49:43.217Z,9.74
2022-12-20T15:52:24.252Z,9.74
2022-12-20T15:54:50.742Z,9.73
2022-12-20T15:57:17.180Z,9.73
2022-12-20T16:00:01.839Z,9.72
2022-12-20T16:02:30.824Z,9.70
2022-12-20T16:04:58.845Z,9.70
2022-12-20T16:07:25.911Z,9.68
2022-12-20T16:09:52.382Z,9.67
2022-12-20T16:12:34.748Z,9.67
2022-12-20T16:15:01.423Z,9.66
2022-12-20T16:17:27.836Z,9.65
2022-12-20T16:19:55.590Z,9.65
2022-12-20T16:22:23.817Z,9.64
2022-12-20T16:24:51.680Z,9.63
2022-12-20T16:27:18.158Z,9.64
2022-12-20T16:29:45.312Z,9.64
2022-12-20T16:32:19.527Z,9.63
2022-12-20T16:34:47.188Z,9.63
2022-12-20T16:37:14.914Z,9.62
2022-12-20T16:39:42.055Z,9.64
2022-12-20T16:42:16.980Z,9.63
2022-12-20T16:44:45.530Z,9.64
2022-12-20T16:47:12.644Z,9.63
2022-12-20T16:49:39.467Z,9.63
2022-12-20T16:52:17.766Z,9.63
2022-12-20T16:54:44.192Z,9.63
2022-12-20T16:57:10.692Z,9.62
2022-12-20T16:59:37.132Z,9.61
2022-12-20T17:02:03.726Z,9.61
2022-12-20T17:04:30.334Z,9.60
2022-12-20T17:06:56.816Z,9.60
2022-12-20T17:12:22.701Z,9.59
2022-12-20T17:14:50.266Z,9.58
2022-12-20T17:17:17.573Z,9.58
2022-12-20T17:19:44.085Z,9.58
2022-12-20T17:22:24.804Z,9.55
2022-12-20T17:24:51.452Z,9.55
2022-12-20T17:27:17.986Z,9.55
2022-12-20T17:29:45.910Z,9.54
2022-12-20T17:32:22.107Z,9.54
2022-12-20T17:34:48.693Z,9.53
2022-12-20T17:37:15.164Z,9.52
2022-12-20T17:39:41.619Z,9.53
2022-12-20T17:42:12.973Z,9.52
2022-12-20T17:44:39.433Z,9.52
2022-12-20T17:47:06.589Z,9.52
2022-12-20T17:49:33.255Z,9.52
2022-12-20T17:51:59.681Z,9.50
2022-12-20T17:54:32.052Z,9.50
2022-12-20T17:57:01.412Z,9.50
2022-12-20T17:59:29.280Z,9.48
2022-12-20T18:01:55.986Z,9.49
2022-12-20T18:04:22.575Z,9.49
2022-12-20T18:06:49.872Z,9.48
2022-12-20T18:09:18.802Z,9.46
2022-12-20T18:11:46.008Z,9.45
2022-12-20T18:14:13.227Z,9.45
2022-12-20T18:16:41.303Z,9.45
2022-12-20T18:19:14.419Z,9.44
2022-12-20T18:21:41.678Z,9.44
2022-12-20T18:24:11.797Z,9.43
2022-12-20T18:26:38.421Z,9.42
2022-12-20T18:29:04.896Z,9.42
2022-12-20T18:31:33.904Z,9.42
2022-12-20T18:34:01.075Z,9.43
2022-12-20T18:36:34.576Z,9.41
2022-12-20T18:39:03.315Z,9.41
2022-12-20T18:41:30.790Z,9.40
2022-12-20T18:44:00.304Z,9.41
2022-12-20T18:46:27.465Z,9.41
2022-12-20T18:48:55.694Z,9.39
2022-12-20T18:51:24.229Z,9.39
2022-12-20T18:53:54.636Z,9.38
2022-12-20T18:56:24.846Z,9.38
2022-12-20T18:58:51.821Z,9.38
2022-12-20T19:01:22.089Z,9.38
2022-12-20T19:03:50.507Z,9.36
2022-12-20T19:06:17.043Z,9.35
2022-12-20T19:08:43.681Z,9.35
2022-12-20T19:11:13.651Z,9.33
2022-12-20T19:13:40.659Z,9.33
2022-12-20T19:16:11.125Z,9.33
2022-12-20T19:18:37.692Z,9.33
2022-12-20T19:21:08.859Z,9.33
2022-12-20T19:23:37.109Z,9.32
2022-12-20T19:26:05.906Z,9.32
2022-12-20T19:28:33.101Z,9.32
2022-12-20T19:31:06.464Z,9.31
2022-12-20T19:33:36.039Z,9.32
2022-12-20T19:36:15.479Z,9.30
2022-12-20T19:38:44.597Z,9.30
2022-12-20T19:41:11.650Z,9.30
2022-12-20T19:43:38.039Z,9.28
2022-12-20T19:46:04.538Z,9.29
2022-12-20T19:48:33.291Z,9.27
2022-12-20T19:51:12.634Z,9.26
2022-12-20T19:53:40.813Z,9.26
2022-12-20T19:56:08.673Z,9.28
2022-12-20T19:58:36.342Z,9.26
2022-12-20T20:01:05.353Z,9.27
2022-12-20T20:03:32.636Z,9.26
2022-12-20T20:05:59.436Z,9.25
2022-12-20T20:08:26.051Z,9.26
2022-12-20T20:10:56.778Z,9.26
2022-12-20T20:13:24.279Z,9.25
2022-12-20T20:15:52.185Z,9.24
2022-12-20T20:18:19.188Z,9.25
2022-12-20T20:20:45.889Z,9.24
2022-12-20T20:23:12.248Z,9.24
2022-12-20T20:25:44.784Z,9.24
2022-12-20T20:28:11.234Z,9.22
2022-12-20T20:30:43.588Z,9.24
2022-12-20T20:33:12.163Z,9.24
2022-12-20T20:35:39.833Z,9.23
2022-12-20T20:38:07.280Z,9.23
2022-12-20T20:40:33.878Z,9.22
2022-12-20T20:43:00.680Z,9.20
2022-12-20T20:45:27.111Z,9.19
2022-12-20T20:47:54.433Z,9.19
2022-12-20T20:50:21.393Z,9.18
2022-12-20T20:52:48.233Z,9.18
2022-12-20T20:55:14.691Z,9.18
2022-12-20T20:57:41.130Z,9.18
2022-12-20T21:00:08.316Z,9.17
2022-12-20T21:02:34.985Z,9.17
2022-12-20T21:05:59.858Z,9.17
2022-12-20T21:07:47.912Z,9.16
2022-12-20T21:10:14.688Z,9.17
2022-12-20T21:12:41.250Z,9.14
2022-12-20T21:15:24.710Z,9.12
2022-12-20T21:17:51.325Z,9.11
2022-12-20T21:20:23.819Z,9.10
2022-12-20T21:22:52.319Z,9.10
2022-12-20T21:25:18.833Z,9.10
2022-12-20T21:27:45.202Z,9.07
2022-12-20T21:30:12.111Z,9.05
2022-12-20T21:32:38.488Z,9.04
2022-12-20T21:35:06.112Z,9.03
2022-12-20T21:37:32.548Z,9.02
2022-12-20T21:39:58.995Z,8.99
2022-12-20T21:42:25.512Z,8.96
2022-12-20T21:44:52.223Z,8.93
2022-12-20T21:47:19.091Z,8.91
2022-12-20T21:49:45.902Z,8.89
2022-12-20T21:52:12.430Z,8.86
2022-12-20T21:54:38.995Z,8.83
2022-12-20T21:57:05.406Z,8.82
2022-12-20T21:59:31.814Z,8.81
2022-12-20T22:01:58.598Z,8.77
2022-12-20T22:04:25.703Z,8.78
2022-12-20T22:06:52.140Z,8.76
2022-12-20T22:09:18.645Z,8.75
2022-12-20T22:11:48.494Z,8.74
2022-12-20T22:14:15.843Z,8.72
2022-12-20T22:16:42.708Z,8.70
2022-12-20T22:19:12.767Z,8.69
2022-12-20T22:21:39.257Z,8.67
2022-12-20T22:24:06.125Z,8.67
2022-12-20T22:26:33.643Z,8.64
2022-12-20T22:29:06.129Z,8.62
2022-12-20T22:31:33.901Z,8.63
2022-12-20T22:34:00.677Z,8.59
2022-12-20T22:36:28.000Z,8.59
2022-12-20T22:38:55.741Z,8.57
2022-12-20T22:41:34.542Z,8.57
2022-12-20T22:44:01.524Z,8.56
2022-12-20T22:46:31.030Z,8.53
2022-12-20T22:48:58.938Z,8.52
2022-12-20T22:51:27.252Z,8.51
2022-12-20T22:53:54.199Z,8.50
2022-12-20T22:56:21.669Z,8.48
2022-12-20T22:58:48.715Z,8.47
2022-12-20T23:01:17.105Z,8.46
2022-12-20T23:03:44.428Z,8.46
2022-12-20T23:06:14.603Z,8.46
2022-12-20T23:08:41.303Z,8.44
2022-12-20T23:11:36.450Z,8.42
2022-12-20T23:14:22.783Z,8.40
2022-12-20T23:16:49.767Z,8.38
2022-12-20T23:19:16.289Z,8.34
2022-12-20T23:22:01.404Z,8.31
2022-12-20T23:24:27.788Z,8.28
2022-12-20T23:26:54.192Z,8.26
2022-12-20T23:29:20.675Z,8.23
2022-12-20T23:31:47.096Z,8.21
2022-12-20T23:34:13.521Z,8.21
2022-12-20T23:36:40.762Z,8.21
2022-12-20T23:39:07.739Z,8.19
2022-12-20T23:41:34.169Z,8.18
2022-12-20T23:44:04.533Z,8.16
2022-12-20T23:46:31.001Z,8.15
2022-12-20T23:48:57.401Z,8.13
2022-12-20T23:51:23.805Z,8.11
2022-12-20T23:53:53.248Z,8.09
2022-12-20T23:56:21.404Z,8.06
2022-12-20T23:58:53.773Z,8.03
